Ride Results

Capel Tuart Horse Ride (17-05-2014)
Ride distance: 84.0 km

Outcomes - Capel Tuart Horse Ride (17-05-2014)
Division No. of Entries Retired / DNE Completed Withdrawn Ineligible V/O Percentage Completed
HW 9 - 6 1 - 2 66.67%
MW 17 - 11 3 - 3 64.71%
LW 10 - 8 1 - 1 80.00%
JN 1 - 1 - - - 100.00%
Totals 37 - 26 5 - 6 70.27%
Results - Capel Tuart Horse Ride (17-05-2014)
No. Rider Horse Place Time Leg Speeds Total
Km/Hr
H/R bpm
Heavyweight
3 Liz Cullam Phoebe 1 6:50:00 15.4, 10.2 12.29 38, 41, 48 (Avg:44)
8 Richard Jeggo Yaldon Rival 2 (BC) 7:12:00 13.5, 10.2 11.67 30, 40, 38 (Avg:39)
18 Bernie Morris Maralinga Ellusive Bey 3 7:22:00 13.6, 9.7 11.40 36, 47, 57 (Avg:52)
15 Lee Boelen Aria Armani 4 7:26:00 12.8, 10.0 11.30 32, 43, 47 (Avg:45)
14 Chelly Clifton Maydale Park Bint Sowellu 4 7:26:00 12.8, 10.0 11.30 28, 38, 40 (Avg:39)
5 Ross McCamish Noran Astro 6 7:29:00 12.9, 9.8 11.22 38, 45, 53 (Avg:49)
9 Caroline McShane Maralinga Fable Lame L2 0:00:00 13.5, 10.2 - 32, 42, 59 (Avg:50)
27 Dave Radford Radical Blue Rebecca Withdrawn L2 0:00:00 - - 41, 52, 50 (Avg:51)
24 Angelika Chalwell Titanium Miss Lame L1 0:00:00 9.8 - 36, 44 (Avg:44)
Middleweight
37 Diana McGirr Top Fancy Dolce 1 5:50:00 18.1, 11.9 14.40 34, 52, 58 (Avg:55)
19 Frances Overheu Poseidon Moon 1 5:50:00 18.1, 11.9 14.40 29, 35, 39 (Avg:37)
R3 Norb Radny West Coast Acharon 3 (BC) 6:03:00 14.4, 13.4 13.88 35, 35, 45 (Avg:40)
42 Jane Radny West Coast Natanya 4 6:03:10 13.9, 13.7 13.88 30, 31, 37 (Avg:34)
43 Fiona Sutcliffe Amanah Blue Prince 5 6:03:20 13.9, 13.7 13.87 39, 42, 47 (Avg:44)
13 Kylie Day Robmurty Ronan 6 6:31:00 14.3, 11.7 12.89 46, 53, 48 (Avg:50)
41 Michael Thomas Flametree Moonshine 7 7:14:00 13.0, 10.4 11.61 34, 38, 46 (Avg:42)
R1 Christie Lee Jest Malik Manilla 8 7:16:00 13.1, 10.3 11.56 31, 46, 49 (Avg:47)
12 Ricci Adlam Al Shafiq JPA 9 7:33:00 12.0, 10.3 11.13 32, 37, 40 (Avg:38)
25 Aneika Parker Ruby Park Cosmo 9 7:33:00 12.6, 9.9 11.13 39, 38, 40 (Avg:39)
29 Joan Gill Red Mink 11 8:27:00 9.8, 10.0 9.94 32, 41, 55 (Avg:48)
1 Leigh Hopkinson Roswa Park Julia's Gift Lame L1 0:00:00 14.3 - 41, 47 (Avg:47)
40 Caitlin Liebmann-Reimers Eleazar Show Stopper Withdrawn L1 0:00:00 - - 40, 46 (Avg:46)
35 Jodie McKell Eleazar Ramarkable Withdrawn L1 0:00:00 - - 35, 41 (Avg:41)
2 Janice Raffaele Morgan Bey Lame L1 0:00:00 18.1 - 40, 46 (Avg:46)
38 Jack Reimers Mahmut Withdrawn L1 0:00:00 - - 35, 43 (Avg:43)
33 Ian Stanley Marbling Allarra Lame L1 0:00:00 13.0 - 31, 43 (Avg:43)
Lightweight
7 Lynn Rodgers Deep Forest Orahn 1 (BC) 5:50:00 18.1, 11.9 14.40 42, 41, 48 (Avg:44)
26 Raylene Watson Jupalee Ala 2 6:26:00 13.6, 12.5 13.06 35, 49, 46 (Avg:47)
34 Claudia Seke Alcedo Mystique 3 6:31:00 14.3, 11.7 12.89 36, 41, 46 (Avg:43)
36 Jenna Macrae Astana Stattik 4 6:41:00 13.6, 11.6 12.57 34, 35, 43 (Avg:39)
28 Liz Mulcahy The Brolga 5 6:50:00 15.4, 10.2 12.29 32, 40, 41 (Avg:40)
10 Vicky Jeggo Maralinga Summer Breeze 6 7:12:00 13.5, 10.2 11.67 35, 40, 42 (Avg:41)
30 Kerryn Willing Kaisi View Seduction 7 7:14:00 13.4, 10.2 11.61 36, 37, 40 (Avg:38)
4 Linda Dix Ebony's Savannah Rose 8 7:30:00 12.6, 10.0 11.20 34, 35, 47 (Avg:41)
32 Shannan Foster Tanderra Jordaan Withdrawn L2 0:00:00 - - 37, 53, 58 (Avg:55)
6 Mel Atwell Secret Code Lame L1 0:00:00 12.9 - 41, 48 (Avg:48)
Junior
44 Bec Radny Steel Poppy Regent 1 (BC) 6:03:00 13.9, 13.7 13.88 39, 44, 48 (Avg:46)